createdAt,value
2023-03-06T00:01:09.613Z,18.50
2023-03-06T00:07:11.365Z,19.02
2023-03-06T00:13:19.169Z,19.00
2023-03-06T00:19:20.917Z,18.98
2023-03-06T00:25:23.464Z,20.23
2023-03-06T00:31:31.459Z,26.35
2023-03-06T00:37:33.687Z,28.17
2023-03-06T00:43:36.475Z,33.00
2023-03-06T00:49:38.270Z,32.15
2023-03-06T00:55:40.155Z,34.40
2023-03-06T01:01:42.345Z,28.77
2023-03-06T01:07:44.223Z,32.85
2023-03-06T01:13:46.248Z,32.40
2023-03-06T01:19:48.230Z,37.70
2023-03-06T01:25:49.957Z,36.13
2023-03-06T01:31:54.133Z,36.55
2023-03-06T01:37:55.989Z,36.70
2023-03-06T01:43:57.976Z,39.45
2023-03-06T01:50:01.918Z,44.30
2023-03-06T01:56:04.099Z,41.15
2023-03-06T02:02:10.833Z,45.05
2023-03-06T02:08:16.523Z,41.10
2023-03-06T02:14:20.882Z,44.22
2023-03-06T02:20:29.104Z,43.60
2023-03-06T02:26:33.032Z,46.72
2023-03-06T02:32:49.292Z,49.72
2023-03-06T02:38:51.724Z,57.00
2023-03-06T02:44:57.482Z,51.67
2023-03-06T02:51:00.485Z,54.80
2023-03-06T02:57:02.340Z,55.22
2023-03-06T03:03:06.355Z,56.42
2023-03-06T03:09:08.138Z,57.05
2023-03-06T03:15:11.352Z,57.17
2023-03-06T03:21:14.823Z,52.90
2023-03-06T03:27:16.713Z,54.72
2023-03-06T03:33:18.987Z,47.80
2023-03-06T03:39:21.459Z,51.25
2023-03-06T03:45:23.377Z,52.22
2023-03-06T03:51:27.832Z,47.20
2023-03-06T03:57:31.997Z,50.65
2023-03-06T04:03:34.700Z,51.22
2023-03-06T04:09:37.102Z,54.17
2023-03-06T04:15:39.102Z,49.03
2023-03-06T04:21:41.716Z,54.47
2023-03-06T04:27:44.441Z,52.95
2023-03-06T04:33:46.442Z,51.25
2023-03-06T04:47:24.497Z,52.08
2023-03-06T04:53:26.904Z,53.53
2023-03-06T04:59:28.639Z,58.55
2023-03-06T05:05:30.583Z,55.65
2023-03-06T05:11:32.451Z,57.67
2023-03-06T05:17:34.556Z,51.10
2023-03-06T05:23:38.615Z,57.70
2023-03-06T05:29:40.376Z,62.33
2023-03-06T05:35:48.440Z,56.97
2023-03-06T05:41:50.266Z,61.40
2023-03-06T05:47:52.023Z,55.80
2023-03-06T05:53:53.809Z,59.63
2023-03-06T05:59:55.776Z,59.05
2023-03-06T06:05:57.573Z,61.35
2023-03-06T06:12:02.532Z,60.75
2023-03-06T06:18:04.362Z,61.63
2023-03-06T06:24:06.418Z,54.05
2023-03-06T06:30:10.507Z,59.78
2023-03-06T06:36:19.755Z,57.10
2023-03-06T06:42:31.990Z,59.28
2023-03-06T06:48:37.720Z,61.00
2023-03-06T06:54:39.470Z,64.40
2023-03-06T07:00:41.255Z,68.85
2023-03-06T07:06:43.173Z,64.13
2023-03-06T07:12:44.947Z,69.38
2023-03-06T07:18:46.684Z,69.90
2023-03-06T07:24:48.455Z,74.22
2023-03-06T07:30:50.444Z,62.67
2023-03-06T07:36:52.291Z,72.63
2023-03-06T07:43:13.010Z,75.75
2023-03-06T07:49:23.255Z,69.55
2023-03-06T07:55:26.998Z,79.35
2023-03-06T08:01:29.087Z,65.80
2023-03-06T08:07:31.498Z,65.78
2023-03-06T08:13:33.676Z,66.72
2023-03-06T08:19:35.441Z,63.40
2023-03-06T08:25:37.291Z,64.43
2023-03-06T08:31:42.061Z,65.53
2023-03-06T08:37:52.502Z,63.13
2023-03-06T08:43:54.694Z,59.53
2023-03-06T08:49:56.784Z,56.00
2023-03-06T08:55:59.165Z,60.15
2023-03-06T09:02:01.579Z,56.28
2023-03-06T09:08:03.394Z,50.13
2023-03-06T09:14:06.643Z,47.53
2023-03-06T09:20:10.645Z,41.90
2023-03-06T09:26:12.505Z,35.55
2023-03-06T09:32:14.344Z,32.35
2023-03-06T09:38:16.383Z,24.13
2023-03-06T09:44:33.826Z,19.98
2023-03-06T09:51:01.252Z,18.23
2023-03-06T09:57:15.137Z,18.80
2023-03-06T10:03:45.871Z,19.75
2023-03-06T10:10:02.672Z,17.60
2023-03-06T10:16:30.594Z,18.38
2023-03-06T10:22:38.868Z,20.30
2023-03-06T10:28:46.624Z,18.08
2023-03-06T10:34:49.757Z,19.40
2023-03-06T10:41:11.708Z,16.88
2023-03-06T10:47:34.900Z,21.52
2023-03-06T10:53:46.520Z,17.27
2023-03-06T10:59:54.183Z,17.45
2023-03-06T11:12:23.972Z,21.85
2023-03-06T11:18:34.868Z,21.52
2023-03-06T11:24:42.397Z,22.58
2023-03-06T11:30:51.759Z,21.95
2023-03-06T11:37:31.941Z,24.40
2023-03-06T11:44:12.064Z,20.15
2023-03-06T11:50:23.012Z,23.25
2023-03-06T11:56:36.897Z,24.17
2023-03-06T12:03:10.738Z,25.05
2023-03-06T12:09:12.717Z,25.08
2023-03-06T12:15:39.073Z,22.77
2023-03-06T12:21:40.742Z,24.45
2023-03-06T12:27:48.683Z,23.00
2023-03-06T12:34:01.644Z,20.55
2023-03-06T12:40:37.228Z,20.55
2023-03-06T12:46:49.343Z,14.57
2023-03-06T12:52:53.422Z,15.93
2023-03-06T12:58:57.008Z,21.63
2023-03-06T13:05:42.677Z,22.92
2023-03-06T13:12:00.382Z,25.70
2023-03-06T13:18:21.138Z,24.92
2023-03-06T13:24:29.496Z,20.77
2023-03-06T13:30:45.680Z,17.90
2023-03-06T13:36:47.549Z,13.57
2023-03-06T13:42:52.668Z,15.15
2023-03-06T13:49:09.592Z,15.95
2023-03-06T13:55:34.319Z,18.20
2023-03-06T14:01:47.370Z,14.32
2023-03-06T14:08:06.153Z,17.13
2023-03-06T14:14:11.964Z,13.95
2023-03-06T14:20:17.885Z,16.83
2023-03-06T14:26:29.494Z,15.90
2023-03-06T14:32:31.408Z,12.40
2023-03-06T14:38:42.447Z,11.98
2023-03-06T14:44:45.245Z,9.48
2023-03-06T14:50:56.338Z,11.63
2023-03-06T14:57:03.310Z,13.23
2023-03-06T15:03:16.283Z,14.07
2023-03-06T15:09:24.395Z,11.93
2023-03-06T15:15:29.577Z,22.00
2023-03-06T15:21:40.466Z,20.35
2023-03-06T15:27:49.817Z,10.30
2023-03-06T15:34:06.729Z,11.55
2023-03-06T15:40:18.500Z,11.67
2023-03-06T15:46:20.266Z,12.40
2023-03-06T15:52:23.047Z,14.25
2023-03-06T15:58:26.825Z,13.65
2023-03-06T16:04:28.802Z,15.45
2023-03-06T16:10:33.313Z,18.08
2023-03-06T16:31:38.237Z,17.42
2023-03-06T16:37:40.910Z,20.15
2023-03-06T16:43:42.694Z,25.58
2023-03-06T16:49:44.514Z,22.95
2023-03-06T16:55:46.551Z,21.35
2023-03-06T17:01:48.410Z,19.23
2023-03-06T17:07:50.505Z,14.50
2023-03-06T17:13:52.350Z,16.40
2023-03-06T17:19:54.131Z,20.85
2023-03-06T17:26:09.920Z,21.98
2023-03-06T17:32:12.030Z,23.17
2023-03-06T17:38:13.906Z,26.05
2023-03-06T17:44:19.781Z,23.98
2023-03-06T17:50:21.731Z,24.65
2023-03-06T17:56:23.570Z,28.02
2023-03-06T18:02:25.397Z,27.17
2023-03-06T18:08:27.190Z,43.67
2023-03-06T18:14:28.981Z,30.88
2023-03-06T18:20:30.957Z,30.58
2023-03-06T18:26:32.915Z,33.13
2023-03-06T18:32:35.201Z,32.38
2023-03-06T18:38:39.668Z,33.33
2023-03-06T18:44:41.818Z,42.63
2023-03-06T18:50:43.785Z,34.72
2023-03-06T18:56:45.573Z,34.60
2023-03-06T19:02:47.438Z,42.65
2023-03-06T19:08:49.237Z,36.03
2023-03-06T19:14:50.988Z,35.75
2023-03-06T19:20:56.553Z,38.60
2023-03-06T19:26:58.322Z,39.72
2023-03-06T19:33:00.196Z,40.17
2023-03-06T19:39:04.236Z,38.88
2023-03-06T19:45:06.660Z,46.80
2023-03-06T19:51:09.054Z,46.35
2023-03-06T19:57:10.768Z,47.33
2023-03-06T20:03:12.610Z,52.15
2023-03-06T20:09:14.470Z,51.08
2023-03-06T20:15:18.968Z,61.70
2023-03-06T20:21:24.173Z,60.15
2023-03-06T20:27:25.987Z,59.08
2023-03-06T20:33:27.943Z,61.47
2023-03-06T20:39:29.668Z,54.70
2023-03-06T20:45:31.523Z,56.08
2023-03-06T20:51:37.467Z,58.05
2023-03-06T20:57:39.274Z,66.00
2023-03-06T21:03:41.160Z,67.07
2023-03-06T21:09:43.472Z,69.18
2023-03-06T21:15:48.334Z,71.35
2023-03-06T21:21:50.443Z,63.92
2023-03-06T21:27:52.421Z,66.13
2023-03-06T21:33:54.601Z,59.30
2023-03-06T21:40:00.047Z,56.83
2023-03-06T21:46:03.406Z,57.15
2023-03-06T21:52:08.913Z,61.20
2023-03-06T21:58:10.704Z,51.95
2023-03-06T22:04:12.506Z,54.08
2023-03-06T22:10:19.601Z,57.10
2023-03-06T22:16:21.817Z,57.97
2023-03-06T22:22:26.305Z,52.70
2023-03-06T22:28:28.167Z,56.83
2023-03-06T22:34:30.070Z,63.53
2023-03-06T22:40:33.023Z,53.88
2023-03-06T22:46:34.955Z,56.10
2023-03-06T22:52:36.776Z,53.72
2023-03-06T22:58:38.975Z,53.90
2023-03-06T23:04:40.800Z,52.17
2023-03-06T23:10:42.731Z,54.10
2023-03-06T23:17:03.456Z,58.83
2023-03-06T23:23:23.882Z,56.72
2023-03-06T23:29:25.669Z,59.60
2023-03-06T23:35:27.491Z,56.17
2023-03-06T23:41:29.225Z,54.95
2023-03-06T23:47:32.614Z,55.40
2023-03-06T23:53:34.672Z,56.17
2023-03-06T23:59:36.475Z,50.47
